Data for 10/29/2017

Time Sea-Level Adjusted Pressure Absolute Pressure Temperature Relative Humidity Dew Point   
(mb) (inHg) (mb) (inHg) (C) (F) (%) (C) (F)
00:05 1016 30 845 24.95 7 44.6 50 -2.7 27.2
00:10 1016 30 845 24.95 6.8 44.3 49 -3.1 26.3
00:15 1016 30 845 24.95 7.1 44.7 49 -2.8 27
00:20 1016 30 845 24.95 7 44.6 50 -2.8 27
00:25 1016 30 845 24.95 6.8 44.3 49 -3 26.6
00:30 1016 30 845 24.95 6.9 44.4 49 -3.1 26.3
00:35 1016 30 845 24.95 7.4 45.2 49 -2.8 27
00:40 1016 30 845 24.95 7 44.6 48 -3.1 26.4
00:45 1016 30 845 24.95 7.2 44.9 48 -3 26.6
00:50 1016 30 845 24.95 7.5 45.5 47 -3.1 26.4
00:55 1016 30 845 24.95 7.8 46 44 -3.8 25.2
01:00 1016 30 845 24.95 8.3 47 45 -2.8 26.9
01:05 1016 30 845 24.95 7.5 45.5 49 -2.6 27.3
01:10 1016 30 845 24.95 6.7 44 52 -2.5 27.5
01:15 1016 30 845 24.95 6.4 43.5 51 -3 26.7
01:20 1016 30 845 24.95 6.9 44.4 48 -3.2 26.2
01:25 1016 30 845 24.95 7.7 45.9 47 -2.9 26.8
01:30 1016 30 845 24.95 7.2 45 48 -3.2 26.3
01:35 1016 30 845 24.95 7.5 45.6 47 -2.9 26.8
01:40 1016 30 845 24.95 7.5 45.4 48 -2.7 27.1
01:45 1016 30 846 24.98 7.3 45.1 49 -2.7 27.1
01:50 1016 30 845 24.95 7.4 45.3 48 -2.8 26.9
01:55 1016 30 845 24.95 7.6 45.7 48 -2.6 27.3
02:00 1016 30 845 24.95 6.9 44.4 51 -2.6 27.3
02:05 1016 30 845 24.95 6.5 43.8 52 -2.6 27.4
02:10 1016 30 845 24.95 6.1 42.9 53 -2.7 27.2
02:15 1016 30 845 24.95 6 42.8 53 -2.8 27
02:20 1016 30 845 24.95 6 42.9 55 -2.4 27.6
02:25 1016 30 845 24.95 6.4 43.5 51 -2.9 26.8
02:30 1016 30 845 24.95 6.8 44.2 51 -2.6 27.4
02:35 1016 30 845 24.95 6.3 43.3 53 -2.5 27.5
02:40 1016 30 845 24.95 6.4 43.5 52 -2.7 27.2
02:45 1016 30 845 24.95 6.3 43.4 54 -2.4 27.7
02:50 1016 30 845 24.95 6.4 43.5 53 -2.5 27.5
02:55 1016 30 845 24.95 6.4 43.5 53 -2.5 27.5
03:00 1016 30 845 24.95 6.4 43.4 53 -2.6 27.4
03:05 1016 30 845 24.95 5.9 42.6 56 -2.2 28
03:10 1016 30 845 24.95 5.2 41.4 59 -2.1 28.2
03:15 1016 30 845 24.95 4.5 40.1 61 -2.3 27.8
03:20 1016 30 845 24.95 4.6 40.3 59 -2.8 27
03:25 1016 30 845 24.95 5.3 41.5 56 -2.8 27
03:30 1016 30 845 24.95 5.7 42.2 54 -2.8 26.9
03:35 1016 30 846 24.98 5.9 42.7 54 -2.6 27.4
03:40 1016 30 846 24.98 5.6 42.1 57 -2.1 28.2
03:45 1016 30 846 24.98 5 41 60 -2.2 28
03:50 1016 30 846 24.98 4.8 40.7 59 -2.5 27.5
03:55 1016 30 846 24.98 5.5 41.8 55 -2.9 26.8
04:00 1016 30 846 24.98 5.9 42.7 53 -2.9 26.8
04:05 1016 30 846 24.98 6.8 44.2 50 -3 26.6
04:10 1016 30 846 24.98 6.8 44.2 50 -2.8 26.9
04:15 1016 30 846 24.98 6.6 43.8 51 -2.8 26.9
04:20 1017 30.03 846 24.98 6.6 44 50 -3.1 26.4
04:25 1017 30.03 846 24.98 6.7 44.1 50 -3 26.7
04:30 1017 30.03 846 24.98 6.6 43.9 50 -3 26.6
04:35 1017 30.03 846 24.98 6.5 43.8 51 -2.9 26.8
04:40 1017 30.03 846 24.98 6.4 43.6 51 -3 26.6
04:45 1017 30.03 846 24.98 6.5 43.7 50 -3.1 26.5
04:50 1017 30.03 846 24.98 6.3 43.3 53 -2.5 27.4
04:55 1017 30.03 846 24.98 5.3 41.6 55 -2.9 26.9
05:00 1017 30.03 846 24.98 5.4 41.8 55 -2.9 26.9
05:05 1017 30.03 846 24.98 5.2 41.3 57 -2.6 27.3
05:10 1017 30.03 846 24.98 5.1 41.1 58 -2.6 27.3
05:15 1017 30.03 846 24.98 5 41.1 58 -2.7 27.2
05:20 1017 30.03 847 25.01 5.3 41.6 56 -2.8 26.9
05:25 1017 30.03 847 25.01 5.7 42.3 54 -2.7 27.1
05:30 1018 30.06 847 25.01 5.9 42.6 55 -2.5 27.6
05:35 1018 30.06 847 25.01 6.1 43 53 -2.7 27.2
05:40 1018 30.06 847 25.01 5.9 42.7 57 -2 28.4
05:45 1018 30.06 847 25.01 5.5 41.9 56 -2.5 27.4
05:50 1018 30.06 847 25.01 5.4 41.7 57 -2.4 27.7
05:55 1018 30.06 847 25.01 5.4 41.6 58 -2.2 28
06:00 1018 30.06 847 25.01 5.6 42 56 -2.4 27.6
06:05 1018 30.06 847 25.01 5.6 42 59 -1.8 28.8
06:10 1018 30.06 847 25.01 5.3 41.6 58 -2.3 27.8
06:15 1018 30.06 847 25.01 5.8 42.4 56 -2.2 28
06:20 1018 30.06 848 25.04 6 42.8 57 -1.8 28.7
06:25 1018 30.06 848 25.04 5.6 42.1 59 -1.8 28.7
06:30 1019 30.09 848 25.04 5.4 41.7 59 -1.9 28.6
06:35 1019 30.09 848 25.04 5.7 42.3 60 -1.4 29.5
06:40 1019 30.09 848 25.04 5.8 42.5 61 -1 30.2
06:45 1019 30.09 848 25.04 5.9 42.6 62 -0.9 30.4
06:50 1019 30.09 848 25.04 6 42.8 62 -0.8 30.6
06:55 1019 30.09 848 25.04 6.1 43 62 -0.5 31.1
07:00 1019 30.09 848 25.04 6.1 43 63 -0.3 31.4
07:05 1019 30.09 848 25.04 6 42.8 65 -0.1 31.8
07:10 1019 30.09 848 25.04 6 42.7 66 0 32.1
07:15 1019 30.09 849 25.07 5.9 42.6 66 0.1 32.2
07:20 1019 30.09 849 25.07 5.8 42.4 67 0.2 32.4
07:25 1020 30.12 849 25.07 5.7 42.2 68 0.3 32.5
07:30 1020 30.12 849 25.07 5.5 41.9 69 0.4 32.7
07:35 1020 30.12 849 25.07 5.4 41.7 70 0.3 32.6
07:40 1020 30.12 849 25.07 5.3 41.6 71 0.4 32.8
07:45 1020 30.12 849 25.07 5.3 41.5 71 0.5 32.9
07:50 1020 30.12 849 25.07 5.2 41.3 72 0.6 33.1
07:55 1020 30.12 849 25.07 5.1 41.2 72 0.5 32.9
08:00 1020 30.12 849 25.07 5.1 41.1 73 0.6 33
08:05 1020 30.12 849 25.07 5 41.1 72 0.5 32.9
08:10 1020 30.12 849 25.07 5.1 41.3 72 0.5 32.8
08:15 1020 30.12 849 25.07 5.2 41.4 71 0.5 32.9
08:20 1020 30.12 849 25.07 5.3 41.5 72 0.6 33
08:25 1020 30.12 849 25.07 5.3 41.5 71 0.6 33
08:30 1020 30.12 850 25.1 5.4 41.7 71 0.5 32.9
08:35 1020 30.12 850 25.1 5.5 41.9 71 0.6 33
08:40 1020 30.12 850 25.1 5.4 41.7 71 0.5 32.9
08:45 1021 30.15 850 25.1 5.4 41.7 71 0.5 33
08:50 1021 30.15 850 25.1 5.4 41.7 70 0.4 32.8
08:55 1021 30.15 850 25.1 5.4 41.8 70 0.4 32.8
09:00 1021 30.15 850 25.1 5.4 41.8 70 0.5 32.9
09:05 1021 30.15 850 25.1 5.5 41.8 70 0.4 32.7
09:10 1021 30.15 850 25.1 5.5 41.8 70 0.4 32.7
09:15 1021 30.15 850 25.1 5.5 41.8 70 0.4 32.8
09:20 1021 30.15 850 25.1 5.5 41.9 70 0.4 32.8
09:25 1021 30.15 850 25.1 5.5 41.8 70 0.4 32.7
09:30 1021 30.15 850 25.1 5.5 41.8 70 0.5 32.9
09:35 1021 30.15 850 25.1 5.4 41.8 70 0.4 32.8
09:40 1021 30.15 850 25.1 5.4 41.7 70 0.4 32.6
09:45 1021 30.15 850 25.1 5.4 41.7 69 0.2 32.3
09:50 1021 30.15 850 25.1 5.3 41.6 67 -0.3 31.5
09:55 1021 30.15 850 25.1 5.2 41.4 66 -0.5 31.1
10:00 1021 30.15 850 25.1 5.1 41.2 67 -0.6 31
10:05 1021 30.15 850 25.1 5.1 41.2 67 -0.5 31.1
10:10 1021 30.15 850 25.1 5.1 41.1 67 -0.6 30.9
10:15 1021 30.15 850 25.1 4.9 40.9 66 -0.8 30.6
10:20 1021 30.15 850 25.1 5 40.9 65 -1 30.2
10:25 1021 30.15 850 25.1 4.8 40.7 65 -1.1 30
10:30 1021 30.15 850 25.1 4.7 40.4 66 -1.2 29.9
10:35 1021 30.15 850 25.1 4.6 40.3 66 -1.2 29.8
10:40 1021 30.15 850 25.1 4.4 40 67 -1.2 29.8
10:45 1021 30.15 850 25.1 4.2 39.6 67 -1.3 29.6
10:50 1021 30.15 851 25.13 4.1 39.4 67 -1.4 29.5
10:55 1021 30.15 851 25.13 4 39.2 68 -1.4 29.5
11:00 1021 30.15 851 25.13 3.9 39.1 68 -1.4 29.5
11:05 1021 30.15 851 25.13 4 39.1 67 -1.5 29.3
11:10 1021 30.15 851 25.13 3.9 39 67 -1.8 28.8
11:15 1021 30.15 851 25.13 3.8 38.8 66 -2 28.4
11:20 1021 30.15 851 25.13 3.8 38.8 65 -2.3 27.9
11:25 1022 30.18 851 25.13 3.7 38.7 65 -2.2 28
11:30 1021 30.15 851 25.13 3.6 38.5 66 -2.2 28
11:35 1021 30.15 851 25.13 3.5 38.2 66 -2.3 27.9
11:40 1021 30.15 851 25.13 3.4 38.2 66 -2.3 27.9
11:45 1022 30.18 851 25.13 3.4 38.2 66 -2.3 27.8
11:50 1022 30.18 851 25.13 3.5 38.2 66 -2.4 27.7
11:55 1022 30.18 851 25.13 3.5 38.2 65 -2.5 27.5
12:00 1022 30.18 851 25.13 3.4 38.1 65 -2.5 27.6
12:05 1022 30.18 851 25.13 3.4 38.1 65 -2.6 27.2
12:10 1022 30.18 851 25.13 3.4 38 65 -2.6 27.3
12:15 1022 30.18 851 25.13 3.2 37.7 65 -2.7 27.1
12:20 1022 30.18 851 25.13 3.1 37.6 65 -2.9 26.9
12:25 1022 30.18 851 25.13 3 37.4 66 -2.8 27
12:30 1022 30.18 851 25.13 3 37.4 66 -2.8 27
12:35 1022 30.18 851 25.13 2.9 37.2 67 -2.6 27.3
12:40 1022 30.18 851 25.13 2.9 37.2 67 -2.7 27.1
12:45 1022 30.18 851 25.13 2.7 36.9 69 -2.5 27.6
12:50 1022 30.18 851 25.13 2.5 36.5 71 -2.3 27.9
12:55 1022 30.18 851 25.13 2.3 36.1 74 -1.9 28.5
13:00 1022 30.18 852 25.16 2.1 35.7 75 -1.8 28.7
13:05 1022 30.18 852 25.16 1.7 35.1 79 -1.6 29.1
13:10 1023 30.21 852 25.16 1.2 34.2 80 -1.8 28.8
13:15 1023 30.21 852 25.16 0.9 33.6 83 -1.7 28.9
13:20 1023 30.21 852 25.16 0.6 33.1 84 -1.7 28.9
13:25 1023 30.21 852 25.16 0.6 33.2 83 -1.8 28.7
13:30 1023 30.21 852 25.16 0.7 33.3 85 -1.5 29.3
13:35 1023 30.21 852 25.16 0.6 33.2 88 -1.2 29.9
13:40 1023 30.21 852 25.16 0.5 32.9 89 -1.1 30
13:45 1023 30.21 852 25.16 0.4 32.7 89 -1.3 29.7
13:50 1023 30.21 852 25.16 0.3 32.5 88 -1.4 29.4
13:55 1023 30.21 852 25.16 0.2 32.4 87 -1.8 28.8
14:00 1023 30.21 852 25.16 0.3 32.6 85 -1.9 28.6
14:05 1023 30.21 852 25.16 0.4 32.7 85 -1.8 28.8
14:10 1023 30.21 852 25.16 0.3 32.5 86 -1.8 28.8
14:15 1023 30.21 852 25.16 0.2 32.3 83 -2.3 27.9
14:20 1023 30.21 852 25.16 0.3 32.5 84 -2.2 28.1
14:25 1023 30.21 852 25.16 0.2 32.4 84 -2.2 28.1
14:30 1023 30.21 852 25.16 0.3 32.5 83 -2.3 27.8
14:35 1023 30.21 852 25.16 0.3 32.6 84 -2.1 28.1
14:40 1023 30.21 852 25.16 0.4 32.7 82 -2.4 27.8
14:45 1023 30.21 852 25.16 0.5 32.8 83 -2.1 28.1
14:50 1023 30.21 852 25.16 0.4 32.6 84 -2.1 28.2
14:55 1023 30.21 853 25.19 0.3 32.5 84 -2 28.4
15:00 1023 30.21 853 25.19 0.3 32.5 85 -2 28.5
15:05 1023 30.21 853 25.19 0.2 32.4 85 -1.9 28.5
15:10 1024 30.24 853 25.19 0.2 32.3 86 -1.8 28.7
15:15 1024 30.24 853 25.19 0.1 32.3 84 -2.3 27.9
15:20 1024 30.24 853 25.19 0.2 32.4 83 -2.4 27.6
15:25 1024 30.24 853 25.19 0.3 32.5 81 -2.6 27.4
15:30 1024 30.24 853 25.19 0.2 32.4 82 -2.5 27.5
15:35 1024 30.24 853 25.19 0 32 85 -2.3 27.9
15:40 1024 30.24 853 25.19 -0.1 31.9 84 -2.5 27.5
15:45 1024 30.24 853 25.19 0 32.1 85 -2.1 28.2
15:50 1024 30.24 853 25.19 -0.1 31.8 86 -2.2 28
15:55 1024 30.24 853 25.19 -0.2 31.7 83 -2.7 27.1
16:00 1024 30.24 853 25.19 0.1 32.1 83 -2.5 27.5
16:05 1024 30.24 853 25.19 -0 32 85 -2.3 27.9
16:10 1024 30.24 853 25.19 -0.1 31.9 84 -2.4 27.7
16:15 1024 30.24 854 25.22 -0.1 31.9 84 -2.5 27.4
16:20 1024 30.24 854 25.22 -0.1 31.9 85 -2.4 27.7
16:25 1025 30.27 854 25.22 -0.1 31.9 85 -2.2 28
16:30 1025 30.27 854 25.22 -0.1 31.8 86 -2.2 28
16:35 1025 30.27 854 25.22 -0.2 31.7 86 -2.2 28
16:40 1025 30.27 854 25.22 -0.2 31.6 86 -2.3 27.9
16:45 1025 30.27 854 25.22 -0.2 31.6 86 -2.2 28
16:50 1025 30.27 854 25.22 -0.2 31.7 86 -2.3 27.9
16:55 1025 30.27 854 25.22 -0.2 31.7 86 -2.3 27.8
17:00 1025 30.27 854 25.22 -0.2 31.7 85 -2.4 27.7
17:05 1025 30.27 854 25.22 -0.2 31.7 86 -2.2 28
17:10 1025 30.27 854 25.22 -0.2 31.7 87 -2.2 28.1
17:15 1025 30.27 854 25.22 -0.3 31.5 84 -2.6 27.4
17:20 1025 30.27 854 25.22 -0.3 31.4 84 -2.6 27.2
17:25 1025 30.27 854 25.22 -0.4 31.3 85 -2.5 27.4
17:30 1025 30.27 854 25.22 -0.4 31.3 82 -3.1 26.3
17:35 1025 30.27 854 25.22 -0.5 31.1 81 -3.4 26
17:40 1025 30.27 854 25.22 -0.5 31 81 -3.4 26
17:45 1025 30.27 854 25.22 -0.5 31 81 -3.4 25.8
17:50 1025 30.27 854 25.22 -0.5 31.1 80 -3.6 25.6
17:55 1025 30.27 855 25.25 -0.5 31.2 81 -3.3 26.1
18:00 1025 30.27 855 25.25 -0.6 31 83 -3.1 26.4
18:05 1025 30.27 855 25.25 -0.6 30.9 83 -3.2 26.3
18:10 1026 30.3 855 25.25 -0.6 30.9 81 -3.4 25.8
18:15 1026 30.3 855 25.25 -0.5 31 80 -3.6 25.5
18:20 1026 30.3 855 25.25 -0.5 31.1 78 -3.8 25.1
18:25 1026 30.3 855 25.25 -0.4 31.2 77 -3.9 24.9
18:30 1026 30.3 855 25.25 -0.3 31.5 75 -4.1 24.5
18:35 1026 30.3 855 25.25 -0.1 31.8 74 -4.2 24.4
18:40 1026 30.3 855 25.25 -0 31.9 75 -4 24.9
18:45 1026 30.3 855 25.25 -0.1 31.9 74 -4.2 24.4
18:50 1026 30.3 855 25.25 -0.1 31.9 71 -4.7 23.6
18:55 1026 30.3 855 25.25 -0 32 70 -4.8 23.3
19:00 1026 30.3 855 25.25 0.1 32.1 70 -4.8 23.4
19:05 1026 30.3 855 25.25 0 32.1 70 -4.9 23.2
19:10 1026 30.3 855 25.25 0 32 69 -5.1 22.8
19:15 1026 30.3 855 25.25 0 32 68 -5.2 22.6
19:20 1026 30.3 856 25.28 0 32 70 -4.9 23.2
19:25 1026 30.3 856 25.28 0 32 72 -4.5 23.9
19:30 1026 30.3 856 25.28 -0 32 70 -4.8 23.3
19:35 1027 30.33 856 25.28 0 32 70 -4.9 23.2
19:40 1027 30.33 856 25.28 0.1 32.1 70 -4.8 23.4
19:45 1027 30.33 856 25.28 0.1 32.2 72 -4.4 24.2
19:50 1027 30.33 856 25.28 0.1 32.2 73 -4.2 24.5
19:55 1027 30.33 856 25.28 0.1 32.3 73 -4.1 24.6
20:00 1027 30.33 856 25.28 0 32 70 -4.7 23.5
20:05 1027 30.33 856 25.28 -0.2 31.7 71 -4.8 23.3
20:10 1027 30.33 856 25.28 -0.2 31.6 70 -4.9 23.1
20:15 1027 30.33 856 25.28 -0.2 31.6 69 -5.2 22.6
20:20 1027 30.33 856 25.28 -0.2 31.6 67 -5.6 21.9
20:25 1027 30.33 856 25.28 -0.1 31.7 68 -5.4 22.3
20:30 1027 30.33 856 25.28 -0.1 31.8 67 -5.5 22.1
20:35 1027 30.33 856 25.28 -0.1 31.8 68 -5.4 22.3
20:40 1027 30.33 856 25.28 -0.1 31.8 66 -5.8 21.6
20:45 1027 30.33 856 25.28 -0.1 31.8 68 -5.4 22.3
20:50 1027 30.33 856 25.28 -0.1 31.8 70 -5 23
20:55 1027 30.33 856 25.28 -0.1 31.8 70 -4.9 23.1
21:00 1027 30.33 856 25.28 -0.2 31.7 71 -4.8 23.3
21:05 1027 30.33 856 25.28 -0.3 31.5 72 -4.7 23.5
21:10 1027 30.33 856 25.28 -0.3 31.4 72 -4.7 23.5
21:15 1027 30.33 856 25.28 -0.4 31.2 74 -4.6 23.8
21:20 1027 30.33 856 25.28 -0.6 30.8 76 -4.4 24.1
21:25 1027 30.33 856 25.28 -0.8 30.6 76 -4.5 23.8
21:30 1027 30.33 856 25.28 -0.6 30.9 73 -4.8 23.3
21:35 1027 30.33 856 25.28 -0.5 31.2 71 -5.1 22.9
21:40 1027 30.33 856 25.28 -0.4 31.3 70 -5.2 22.7
21:45 1027 30.33 856 25.28 -0.3 31.5 70 -5.1 22.8
21:50 1027 30.33 856 25.28 -0.2 31.6 69 -5.3 22.4
21:55 1027 30.33 856 25.28 -0.1 31.8 72 -4.7 23.6
22:00 1027 30.33 856 25.28 -0.2 31.6 62 -6.7 19.9
22:05 1027 30.33 856 25.28 0 32 65 -5.8 21.5
22:10 1027 30.33 856 25.28 -0 31.9 63 -6.3 20.6
22:15 1027 30.33 856 25.28 0.1 32.1 61 -6.6 20.2
22:20 1027 30.33 856 25.28 0.1 32.2 61 -6.5 20.3
22:25 1027 30.33 856 25.28 0.1 32.2 58 -7.1 19.1
22:30 1027 30.33 856 25.28 0 32.1 58 -7.2 19.1
22:35 1027 30.33 856 25.28 -0.1 31.8 59 -7.3 18.8
22:40 1027 30.33 857 25.31 -0.3 31.4 59 -7.4 18.6
22:45 1027 30.33 857 25.31 -0.4 31.3 60 -7.3 18.9
22:50 1027 30.33 857 25.31 -0.5 31 61 -7.1 19.2
22:55 1027 30.33 857 25.31 -0.5 31 62 -6.9 19.7
23:00 1027 30.33 857 25.31 -0.4 31.2 63 -6.7 19.9
23:05 1027 30.33 857 25.31 -0.4 31.2 61 -7.1 19.2
23:10 1027 30.33 857 25.31 -0.6 31 57 -8.1 17.5
23:15 1027 30.33 857 25.31 -0.7 30.7 57 -8.3 17.1
23:20 1027 30.33 857 25.31 -0.8 30.5 55 -8.8 16.2
23:25 1027 30.33 857 25.31 -0.8 30.6 55 -8.8 16.1
23:30 1027 30.33 857 25.31 -0.7 30.7 54 -8.9 15.9
23:35 1027 30.33 857 25.31 -0.9 30.4 58 -8.2 17.2
23:40 1027 30.33 857 25.31 -1 30.2 57 -8.5 16.6
23:45 1027 30.33 857 25.31 -1.1 30 57 -8.5 16.7
23:50 1027 30.33 857 25.31 -1.2 29.8 57 -8.6 16.5
23:55 1027 30.33 857 25.31 -1.4 29.5 59 -8.5 16.8
24:00 1027 30.33 857 25.31 -1.4 29.5 55 -9.3 15.3